Douglas, North Dakota
Current Conditions -  °F | °C
As of 12:54 PM on Monday 20 Oct 2014 (Local Time) from KMOT Reporting Station
Clear Clear  
Wind Chill: 20°   Ceiling: Unl
Heat Index: 20°   Visibility: 10mi
Dew Point:   Wind: 14mph
Humidity: 31%   Direction: 180°S
Pressure: 29.97"   Gusts: 22mph
Location:  47.86°N, 101.5°W
Report Text: KMOT 201754Z 18012G19KT 10SM CLR 20/02 A2997 RMK AO2 SLP152 T02000022 10200 20017 58010
Loading
Personal Weather Stations






























Interactive Weather Map
Tropical Storm Tracking
New forecast layout! Learn more

10-Day Weather Forecast

Advertisements
Track Severe Weather on mobile